sensor_id;sensor_type;location;lat;lon;timestamp;pressure;altitude;pressure_sealevel;temperature;humidity
55149;BME280;49539;48.160;11.530;2022-09-09T00:04:30;95609.34;;;15.98;100.00
55149;BME280;49539;48.160;11.530;2022-09-09T00:09:49;95616.66;;;16.01;100.00
55149;BME280;49539;48.160;11.530;2022-09-09T00:12:27;95603.03;;;16.06;100.00
55149;BME280;49539;48.160;11.530;2022-09-09T00:15:12;95602.59;;;15.99;100.00
55149;BME280;49539;48.160;11.530;2022-09-09T00:17:44;95596.84;;;15.87;100.00
55149;BME280;49539;48.160;11.530;2022-09-09T00:20:14;95590.59;;;15.87;100.00
55149;BME280;49539;48.160;11.530;2022-09-09T00:22:50;95603.09;;;15.88;100.00
55149;BME280;49539;48.160;11.530;2022-09-09T00:25:45;95602.06;;;15.76;100.00
55149;BME280;49539;48.160;11.530;2022-09-09T00:28:20;95602.69;;;15.80;100.00
55149;BME280;49539;48.160;11.530;2022-09-09T00:30:47;95611.69;;;15.81;100.00
55149;BME280;49539;48.160;11.530;2022-09-09T00:33:19;95598.38;;;15.79;100.00
55149;BME280;49539;48.160;11.530;2022-09-09T00:35:56;95595.50;;;15.74;100.00
55149;BME280;49539;48.160;11.530;2022-09-09T00:41:00;95595.97;;;15.81;100.00
55149;BME280;49539;48.160;11.530;2022-09-09T00:43:30;95606.19;;;15.72;100.00
55149;BME280;49539;48.160;11.530;2022-09-09T00:46:05;95610.91;;;15.62;100.00
55149;BME280;49539;48.160;11.530;2022-09-09T00:51:15;95603.47;;;15.53;100.00
55149;BME280;49539;48.160;11.530;2022-09-09T00:56:23;95606.50;;;15.46;100.00
55149;BME280;49539;48.160;11.530;2022-09-09T00:59:03;95608.81;;;15.66;100.00
55149;BME280;49539;48.160;11.530;2022-09-09T01:01:33;95606.81;;;15.67;100.00
55149;BME280;49539;48.160;11.530;2022-09-09T01:03:59;95614.25;;;15.75;100.00
55149;BME280;49539;48.160;11.530;2022-09-09T01:06:34;95602.69;;;15.71;100.00
55149;BME280;49539;48.160;11.530;2022-09-09T01:14:20;95613.84;;;15.68;100.00
55149;BME280;49539;48.160;11.530;2022-09-09T01:16:50;95613.66;;;15.71;100.00
55149;BME280;49539;48.160;11.530;2022-09-09T01:19:27;95604.50;;;15.74;100.00
55149;BME280;49539;48.160;11.530;2022-09-09T01:25:07;95604.63;;;15.80;100.00
55149;BME280;49539;48.160;11.530;2022-09-09T01:27:36;95604.78;;;15.85;100.00
55149;BME280;49539;48.160;11.530;2022-09-09T01:30:09;95602.03;;;15.85;100.00
55149;BME280;49539;48.160;11.530;2022-09-09T01:32:43;95600.22;;;15.82;100.00
55149;BME280;49539;48.160;11.530;2022-09-09T01:35:15;95601.44;;;15.81;100.00
55149;BME280;49539;48.160;11.530;2022-09-09T01:37:44;95603.28;;;15.84;100.00
55149;BME280;49539;48.160;11.530;2022-09-09T01:40:10;95602.34;;;15.87;100.00
55149;BME280;49539;48.160;11.530;2022-09-09T01:42:36;95595.19;;;15.81;100.00
55149;BME280;49539;48.160;11.530;2022-09-09T01:45:01;95600.09;;;15.77;100.00
55149;BME280;49539;48.160;11.530;2022-09-09T01:47:27;95599.03;;;15.74;100.00
55149;BME280;49539;48.160;11.530;2022-09-09T01:49:52;95607.41;;;15.61;100.00
55149;BME280;49539;48.160;11.530;2022-09-09T01:52:17;95609.09;;;15.59;100.00
55149;BME280;49539;48.160;11.530;2022-09-09T01:54:43;95605.13;;;15.60;100.00
55149;BME280;49539;48.160;11.530;2022-09-09T01:57:29;95612.16;;;15.52;100.00
55149;BME280;49539;48.160;11.530;2022-09-09T02:00:08;95610.19;;;15.52;100.00
55149;BME280;49539;48.160;11.530;2022-09-09T02:02:58;95604.84;;;15.49;100.00
55149;BME280;49539;48.160;11.530;2022-09-09T02:07:57;95613.69;;;15.44;100.00
55149;BME280;49539;48.160;11.530;2022-09-09T02:10:44;95605.47;;;15.44;100.00
55149;BME280;49539;48.160;11.530;2022-09-09T02:13:17;95594.16;;;15.42;100.00
55149;BME280;49539;48.160;11.530;2022-09-09T02:15:59;95589.59;;;15.38;100.00
55149;BME280;49539;48.160;11.530;2022-09-09T02:18:34;95590.06;;;15.37;100.00
55149;BME280;49539;48.160;11.530;2022-09-09T02:21:02;95590.81;;;15.37;100.00
55149;BME280;49539;48.160;11.530;2022-09-09T02:23:28;95589.44;;;15.42;100.00
55149;BME280;49539;48.160;11.530;2022-09-09T02:25:57;95594.50;;;15.44;100.00
55149;BME280;49539;48.160;11.530;2022-09-09T02:28:26;95598.63;;;15.39;100.00
55149;BME280;49539;48.160;11.530;2022-09-09T02:30:54;95596.91;;;15.42;100.00
55149;BME280;49539;48.160;11.530;2022-09-09T02:33:26;95600.88;;;15.41;100.00
55149;BME280;49539;48.160;11.530;2022-09-09T02:35:52;95594.78;;;15.36;100.00
55149;BME280;49539;48.160;11.530;2022-09-09T02:38:25;95595.56;;;15.37;100.00
55149;BME280;49539;48.160;11.530;2022-09-09T02:40:54;95597.53;;;15.36;100.00
55149;BME280;49539;48.160;11.530;2022-09-09T02:43:19;95592.81;;;15.37;100.00
55149;BME280;49539;48.160;11.530;2022-09-09T02:54:29;95583.50;;;15.44;100.00
55149;BME280;49539;48.160;11.530;2022-09-09T02:57:01;95582.88;;;15.49;100.00
55149;BME280;49539;48.160;11.530;2022-09-09T02:59:29;95588.81;;;15.56;100.00
55149;BME280;49539;48.160;11.530;2022-09-09T03:01:55;95591.25;;;15.54;100.00
55149;BME280;49539;48.160;11.530;2022-09-09T03:04:21;95586.97;;;15.62;100.00
55149;BME280;49539;48.160;11.530;2022-09-09T03:06:47;95581.47;;;15.62;100.00
55149;BME280;49539;48.160;11.530;2022-09-09T03:09:12;95581.03;;;15.64;100.00
55149;BME280;49539;48.160;11.530;2022-09-09T03:11:38;95572.47;;;15.62;100.00
55149;BME280;49539;48.160;11.530;2022-09-09T03:14:04;95574.94;;;15.60;100.00
55149;BME280;49539;48.160;11.530;2022-09-09T03:16:29;95573.88;;;15.57;100.00
55149;BME280;49539;48.160;11.530;2022-09-09T03:18:55;95582.56;;;15.56;100.00
55149;BME280;49539;48.160;11.530;2022-09-09T03:21:20;95582.22;;;15.63;100.00
55149;BME280;49539;48.160;11.530;2022-09-09T03:23:46;95577.09;;;15.56;100.00
55149;BME280;49539;48.160;11.530;2022-09-09T03:26:12;95581.03;;;15.55;100.00
55149;BME280;49539;48.160;11.530;2022-09-09T03:28:41;95577.38;;;15.58;100.00
55149;BME280;49539;48.160;11.530;2022-09-09T03:31:06;95582.25;;;15.54;100.00
55149;BME280;49539;48.160;11.530;2022-09-09T03:33:36;95580.75;;;15.44;100.00
55149;BME280;49539;48.160;11.530;2022-09-09T03:36:02;95580.91;;;15.49;100.00
55149;BME280;49539;48.160;11.530;2022-09-09T03:38:28;95572.63;;;15.58;100.00
55149;BME280;49539;48.160;11.530;2022-09-09T03:40:54;95575.09;;;15.66;100.00
55149;BME280;49539;48.160;11.530;2022-09-09T03:43:24;95569.91;;;15.68;100.00
55149;BME280;49539;48.160;11.530;2022-09-09T03:45:50;95577.97;;;15.71;100.00
55149;BME280;49539;48.160;11.530;2022-09-09T03:48:17;95571.56;;;15.74;100.00
55149;BME280;49539;48.160;11.530;2022-09-09T03:50:51;95563.63;;;15.76;100.00
55149;BME280;49539;48.160;11.530;2022-09-09T03:53:19;95562.09;;;15.84;100.00
55149;BME280;49539;48.160;11.530;2022-09-09T03:55:48;95565.44;;;15.79;100.00
55149;BME280;49539;48.160;11.530;2022-09-09T03:58:15;95558.97;;;15.92;100.00
55149;BME280;49539;48.160;11.530;2022-09-09T04:00:41;95556.84;;;15.96;100.00
55149;BME280;49539;48.160;11.530;2022-09-09T04:03:11;95554.06;;;16.05;100.00
55149;BME280;49539;48.160;11.530;2022-09-09T04:05:39;95559.56;;;16.05;100.00
55149;BME280;49539;48.160;11.530;2022-09-09T04:08:07;95562.38;;;15.86;100.00
55149;BME280;49539;48.160;11.530;2022-09-09T04:10:33;95560.47;;;16.02;100.00
55149;BME280;49539;48.160;11.530;2022-09-09T04:12:59;95553.91;;;15.99;100.00
55149;BME280;49539;48.160;11.530;2022-09-09T04:15:25;95542.50;;;16.01;100.00
55149;BME280;49539;48.160;11.530;2022-09-09T04:17:50;95546.09;;;16.07;100.00
55149;BME280;49539;48.160;11.530;2022-09-09T04:20:16;95545.78;;;16.14;100.00
55149;BME280;49539;48.160;11.530;2022-09-09T04:22:41;95545.44;;;16.21;100.00
55149;BME280;49539;48.160;11.530;2022-09-09T04:25:07;95544.53;;;16.15;100.00
55149;BME280;49539;48.160;11.530;2022-09-09T04:27:32;95547.59;;;16.17;100.00
55149;BME280;49539;48.160;11.530;2022-09-09T04:29:58;95539.03;;;16.15;100.00
55149;BME280;49539;48.160;11.530;2022-09-09T04:32:24;95534.19;;;16.10;100.00
55149;BME280;49539;48.160;11.530;2022-09-09T04:34:52;95533.00;;;16.02;100.00
55149;BME280;49539;48.160;11.530;2022-09-09T04:37:18;95531.19;;;15.99;100.00
55149;BME280;49539;48.160;11.530;2022-09-09T04:39:43;95535.50;;;15.91;100.00
55149;BME280;49539;48.160;11.530;2022-09-09T04:42:08;95529.91;;;15.76;100.00
55149;BME280;49539;48.160;11.530;2022-09-09T04:44:35;95540.00;;;15.60;100.00
55149;BME280;49539;48.160;11.530;2022-09-09T04:47:01;95543.53;;;15.52;100.00
55149;BME280;49539;48.160;11.530;2022-09-09T04:49:26;95544.13;;;15.56;100.00
55149;BME280;49539;48.160;11.530;2022-09-09T04:51:52;95536.66;;;15.56;100.00
55149;BME280;49539;48.160;11.530;2022-09-09T04:54:18;95540.91;;;15.57;100.00
55149;BME280;49539;48.160;11.530;2022-09-09T04:56:43;95540.16;;;15.66;100.00
55149;BME280;49539;48.160;11.530;2022-09-09T04:59:08;95527.66;;;15.56;100.00
55149;BME280;49539;48.160;11.530;2022-09-09T05:01:35;95537.09;;;15.64;100.00
55149;BME280;49539;48.160;11.530;2022-09-09T05:04:01;95540.16;;;15.57;100.00
55149;BME280;49539;48.160;11.530;2022-09-09T05:06:28;95540.63;;;15.55;100.00
55149;BME280;49539;48.160;11.530;2022-09-09T05:08:57;95539.25;;;15.51;100.00
55149;BME280;49539;48.160;11.530;2022-09-09T05:11:28;95541.69;;;15.58;100.00
55149;BME280;49539;48.160;11.530;2022-09-09T05:13:54;95544.47;;;15.49;100.00
55149;BME280;49539;48.160;11.530;2022-09-09T05:16:20;95549.34;;;15.45;100.00
55149;BME280;49539;48.160;11.530;2022-09-09T05:18:46;95555.91;;;15.38;100.00
55149;BME280;49539;48.160;11.530;2022-09-09T05:21:13;95564.31;;;15.25;100.00
55149;BME280;49539;48.160;11.530;2022-09-09T05:23:39;95561.88;;;15.27;100.00
55149;BME280;49539;48.160;11.530;2022-09-09T05:26:06;95562.03;;;15.24;100.00
55149;BME280;49539;48.160;11.530;2022-09-09T05:28:34;95569.03;;;15.25;100.00
55149;BME280;49539;48.160;11.530;2022-09-09T05:31:04;95564.78;;;15.24;100.00
55149;BME280;49539;48.160;11.530;2022-09-09T05:33:31;95565.84;;;15.35;100.00
55149;BME280;49539;48.160;11.530;2022-09-09T05:36:11;95565.38;;;15.37;100.00
55149;BME280;49539;48.160;11.530;2022-09-09T05:38:39;95571.31;;;15.45;100.00
55149;BME280;49539;48.160;11.530;2022-09-09T05:41:05;95570.53;;;15.53;100.00
55149;BME280;49539;48.160;11.530;2022-09-09T05:43:31;95569.44;;;15.60;100.00
55149;BME280;49539;48.160;11.530;2022-09-09T05:46:04;95556.19;;;15.68;100.00
55149;BME280;49539;48.160;11.530;2022-09-09T05:48:41;95554.94;;;15.78;100.00
55149;BME280;49539;48.160;11.530;2022-09-09T05:51:09;95564.41;;;15.77;100.00
55149;BME280;49539;48.160;11.530;2022-09-09T05:53:37;95566.66;;;15.78;100.00
55149;BME280;49539;48.160;11.530;2022-09-09T05:58:33;95558.97;;;15.92;100.00
55149;BME280;49539;48.160;11.530;2022-09-09T06:01:07;95561.56;;;15.95;100.00
55149;BME280;49539;48.160;11.530;2022-09-09T06:03:37;95563.28;;;15.93;100.00
55149;BME280;49539;48.160;11.530;2022-09-09T06:06:05;95566.72;;;16.02;100.00
55149;BME280;49539;48.160;11.530;2022-09-09T06:08:32;95570.06;;;16.06;100.00
55149;BME280;49539;48.160;11.530;2022-09-09T06:11:02;95573.69;;;16.22;100.00
55149;BME280;49539;48.160;11.530;2022-09-09T06:13:28;95570.94;;;16.22;100.00
55149;BME280;49539;48.160;11.530;2022-09-09T06:15:54;95564.31;;;16.28;100.00
55149;BME280;49539;48.160;11.530;2022-09-09T06:18:19;95566.41;;;16.33;100.00
55149;BME280;49539;48.160;11.530;2022-09-09T06:20:59;95562.56;;;16.40;100.00
55149;BME280;49539;48.160;11.530;2022-09-09T06:23:26;95557.56;;;16.38;100.00
55149;BME280;49539;48.160;11.530;2022-09-09T06:25:52;95559.19;;;16.45;100.00
55149;BME280;49539;48.160;11.530;2022-09-09T06:28:25;95561.47;;;16.47;100.00
55149;BME280;49539;48.160;11.530;2022-09-09T06:30:57;95560.84;;;16.52;100.00
55149;BME280;49539;48.160;11.530;2022-09-09T06:33:23;95557.44;;;16.57;100.00
55149;BME280;49539;48.160;11.530;2022-09-09T06:35:52;95550.09;;;16.54;100.00
55149;BME280;49539;48.160;11.530;2022-09-09T06:38:18;95550.41;;;16.56;100.00
55149;BME280;49539;48.160;11.530;2022-09-09T06:40:53;95559.31;;;16.51;100.00
55149;BME280;49539;48.160;11.530;2022-09-09T06:43:20;95554.03;;;16.62;100.00
55149;BME280;49539;48.160;11.530;2022-09-09T06:45:58;95557.50;;;16.72;100.00
55149;BME280;49539;48.160;11.530;2022-09-09T06:48:25;95559.94;;;16.70;100.00
55149;BME280;49539;48.160;11.530;2022-09-09T06:51:04;95559.44;;;16.80;100.00
55149;BME280;49539;48.160;11.530;2022-09-09T06:53:31;95566.28;;;16.85;100.00
55149;BME280;49539;48.160;11.530;2022-09-09T06:56:00;95561.38;;;16.89;100.00
55149;BME280;49539;48.160;11.530;2022-09-09T06:58:27;95566.34;;;17.00;100.00
55149;BME280;49539;48.160;11.530;2022-09-09T07:01:02;95571.19;;;17.05;100.00
55149;BME280;49539;48.160;11.530;2022-09-09T07:03:27;95574.59;;;17.00;100.00
55149;BME280;49539;48.160;11.530;2022-09-09T07:05:54;95580.34;;;16.87;100.00
55149;BME280;49539;48.160;11.530;2022-09-09T07:08:21;95585.63;;;16.91;100.00
55149;BME280;49539;48.160;11.530;2022-09-09T07:10:47;95585.28;;;16.98;100.00
55149;BME280;49539;48.160;11.530;2022-09-09T07:13:12;95602.03;;;16.85;100.00
55149;BME280;49539;48.160;11.530;2022-09-09T07:15:41;95624.16;;;16.91;100.00
55149;BME280;49539;48.160;11.530;2022-09-09T07:18:07;95644.22;;;16.82;100.00
55149;BME280;49539;48.160;11.530;2022-09-09T07:20:32;95629.91;;;16.78;100.00
55149;BME280;49539;48.160;11.530;2022-09-09T07:22:57;95620.34;;;16.64;100.00
55149;BME280;49539;48.160;11.530;2022-09-09T07:25:25;95637.25;;;16.72;100.00
55149;BME280;49539;48.160;11.530;2022-09-09T07:27:53;95636.94;;;16.70;100.00
55149;BME280;49539;48.160;11.530;2022-09-09T07:30:18;95638.69;;;16.58;100.00
55149;BME280;49539;48.160;11.530;2022-09-09T07:32:44;95637.41;;;16.68;100.00
55149;BME280;49539;48.160;11.530;2022-09-09T07:35:10;95629.00;;;16.72;100.00
55149;BME280;49539;48.160;11.530;2022-09-09T07:37:36;95635.22;;;16.81;100.00
55149;BME280;49539;48.160;11.530;2022-09-09T07:40:03;95640.72;;;17.05;100.00
55149;BME280;49539;48.160;11.530;2022-09-09T07:42:29;95638.47;;;17.19;100.00
55149;BME280;49539;48.160;11.530;2022-09-09T07:44:55;95636.06;;;17.35;100.00
55149;BME280;49539;48.160;11.530;2022-09-09T07:47:20;95640.97;;;17.31;100.00
55149;BME280;49539;48.160;11.530;2022-09-09T07:49:46;95631.31;;;17.36;100.00
55149;BME280;49539;48.160;11.530;2022-09-09T07:52:12;95642.31;;;17.36;100.00
55149;BME280;49539;48.160;11.530;2022-09-09T07:54:37;95644.25;;;17.45;100.00
55149;BME280;49539;48.160;11.530;2022-09-09T07:57:03;95639.91;;;17.53;100.00
55149;BME280;49539;48.160;11.530;2022-09-09T07:59:29;95642.75;;;17.58;100.00
55149;BME280;49539;48.160;11.530;2022-09-09T08:01:55;95640.00;;;17.73;100.00
55149;BME280;49539;48.160;11.530;2022-09-09T08:04:22;95644.00;;;17.72;100.00
55149;BME280;49539;48.160;11.530;2022-09-09T08:06:54;95631.78;;;17.88;100.00
55149;BME280;49539;48.160;11.530;2022-09-09T08:09:21;95649.66;;;17.78;100.00
55149;BME280;49539;48.160;11.530;2022-09-09T08:11:47;95646.22;;;17.83;100.00
55149;BME280;49539;48.160;11.530;2022-09-09T08:14:13;95653.16;;;17.93;100.00
55149;BME280;49539;48.160;11.530;2022-09-09T08:16:41;95657.91;;;17.78;100.00
55149;BME280;49539;48.160;11.530;2022-09-09T08:19:08;95657.94;;;17.69;100.00
55149;BME280;49539;48.160;11.530;2022-09-09T08:21:35;95673.44;;;17.66;100.00
55149;BME280;49539;48.160;11.530;2022-09-09T08:24:02;95676.06;;;17.60;100.00
55149;BME280;49539;48.160;11.530;2022-09-09T08:26:40;95680.75;;;17.69;100.00
55149;BME280;49539;48.160;11.530;2022-09-09T08:29:08;95686.47;;;17.66;100.00
55149;BME280;49539;48.160;11.530;2022-09-09T08:31:46;95677.19;;;17.78;100.00
55149;BME280;49539;48.160;11.530;2022-09-09T08:34:12;95688.88;;;17.88;100.00
55149;BME280;49539;48.160;11.530;2022-09-09T08:36:40;95680.72;;;17.78;100.00
55149;BME280;49539;48.160;11.530;2022-09-09T08:39:08;95688.41;;;17.74;100.00
55149;BME280;49539;48.160;11.530;2022-09-09T08:44:36;95699.75;;;17.67;100.00
55149;BME280;49539;48.160;11.530;2022-09-09T08:55:21;95708.63;;;17.47;100.00
55149;BME280;49539;48.160;11.530;2022-09-09T08:57:54;95698.09;;;17.46;100.00
55149;BME280;49539;48.160;11.530;2022-09-09T09:00:20;95707.78;;;17.17;100.00
55149;BME280;49539;48.160;11.530;2022-09-09T09:05:47;95706.88;;;17.11;100.00
55149;BME280;49539;48.160;11.530;2022-09-09T09:10:48;95708.59;;;17.32;100.00
55149;BME280;49539;48.160;11.530;2022-09-09T09:18:53;95700.25;;;17.42;100.00
55149;BME280;49539;48.160;11.530;2022-09-09T09:21:42;95704.03;;;17.44;100.00
55149;BME280;49539;48.160;11.530;2022-09-09T09:24:23;95696.56;;;17.45;100.00
55149;BME280;49539;48.160;11.530;2022-09-09T09:26:52;95686.72;;;17.53;100.00
55149;BME280;49539;48.160;11.530;2022-09-09T09:29:19;95688.78;;;17.82;100.00
55149;BME280;49539;48.160;11.530;2022-09-09T09:31:51;95692.41;;;18.03;100.00
55149;BME280;49539;48.160;11.530;2022-09-09T09:34:17;95680.31;;;17.85;100.00
55149;BME280;49539;48.160;11.530;2022-09-09T09:36:59;95683.38;;;18.02;100.00
55149;BME280;49539;48.160;11.530;2022-09-09T09:39:33;95690.41;;;18.03;100.00
55149;BME280;49539;48.160;11.530;2022-09-09T09:42:11;95678.63;;;18.03;100.00
55149;BME280;49539;48.160;11.530;2022-09-09T09:44:40;95678.91;;;17.90;100.00
55149;BME280;49539;48.160;11.530;2022-09-09T09:47:08;95687.25;;;17.81;100.00
55149;BME280;49539;48.160;11.530;2022-09-09T09:49:34;95686.97;;;17.79;100.00
55149;BME280;49539;48.160;11.530;2022-09-09T09:52:03;95690.97;;;17.78;100.00
55149;BME280;49539;48.160;11.530;2022-09-09T09:54:32;95688.16;;;17.63;100.00
55149;BME280;49539;48.160;11.530;2022-09-09T09:57:14;95683.13;;;17.61;100.00
55149;BME280;49539;48.160;11.530;2022-09-09T09:59:41;95679.97;;;17.54;100.00
55149;BME280;49539;48.160;11.530;2022-09-09T10:02:22;95687.31;;;17.57;100.00
55149;BME280;49539;48.160;11.530;2022-09-09T10:05:17;95689.28;;;17.56;100.00
55149;BME280;49539;48.160;11.530;2022-09-09T10:07:44;95679.00;;;17.42;100.00
55149;BME280;49539;48.160;11.530;2022-09-09T10:10:20;95680.81;;;17.45;100.00
55149;BME280;49539;48.160;11.530;2022-09-09T10:30:17;95689.94;;;17.90;100.00
55149;BME280;49539;48.160;11.530;2022-09-09T10:33:09;95678.56;;;17.73;100.00
55149;BME280;49539;48.160;11.530;2022-09-09T10:35:58;95681.22;;;18.06;100.00
55149;BME280;49539;48.160;11.530;2022-09-09T10:38:30;95672.81;;;18.30;100.00
55149;BME280;49539;48.160;11.530;2022-09-09T10:41:11;95673.00;;;18.42;100.00
55149;BME280;49539;48.160;11.530;2022-09-09T10:46:18;95671.94;;;18.54;100.00
55149;BME280;49539;48.160;11.530;2022-09-09T10:51:29;95679.19;;;18.37;100.00
55149;BME280;49539;48.160;11.530;2022-09-09T10:56:34;95670.63;;;18.34;100.00
55149;BME280;49539;48.160;11.530;2022-09-09T10:59:07;95670.13;;;18.51;100.00
55149;BME280;49539;48.160;11.530;2022-09-09T11:01:41;95665.94;;;18.70;100.00
55149;BME280;49539;48.160;11.530;2022-09-09T11:04:23;95665.69;;;18.89;100.00
55149;BME280;49539;48.160;11.530;2022-09-09T11:06:54;95663.25;;;18.96;100.00
55149;BME280;49539;48.160;11.530;2022-09-09T11:09:24;95657.28;;;19.18;100.00
55149;BME280;49539;48.160;11.530;2022-09-09T11:11:53;95661.41;;;19.28;100.00
55149;BME280;49539;48.160;11.530;2022-09-09T11:14:26;95659.59;;;19.66;100.00
55149;BME280;49539;48.160;11.530;2022-09-09T11:17:00;95657.78;;;19.83;100.00
55149;BME280;49539;48.160;11.530;2022-09-09T11:24:51;95651.81;;;20.17;100.00
55149;BME280;49539;48.160;11.530;2022-09-09T11:27:29;95653.78;;;19.85;100.00
55149;BME280;49539;48.160;11.530;2022-09-09T11:35:39;95654.06;;;20.18;100.00
55149;BME280;49539;48.160;11.530;2022-09-09T11:38:59;95656.88;;;20.50;100.00
55149;BME280;49539;48.160;11.530;2022-09-09T11:41:07;95646.56;;;20.93;100.00
55149;BME280;49539;48.160;11.530;2022-09-09T11:43:50;95636.00;;;20.97;100.00
55149;BME280;49539;48.160;11.530;2022-09-09T11:46:20;95640.09;;;21.13;100.00
55149;BME280;49539;48.160;11.530;2022-09-09T11:49:05;95647.25;;;20.83;100.00
55149;BME280;49539;48.160;11.530;2022-09-09T11:51:32;95642.28;;;20.49;100.00
55149;BME280;49539;48.160;11.530;2022-09-09T11:53:59;95644.06;;;20.26;100.00
55149;BME280;49539;48.160;11.530;2022-09-09T11:56:29;95641.47;;;19.86;100.00
55149;BME280;49539;48.160;11.530;2022-09-09T12:01:43;95652.91;;;19.32;100.00
55149;BME280;49539;48.160;11.530;2022-09-09T12:04:28;95651.88;;;19.09;100.00
55149;BME280;49539;48.160;11.530;2022-09-09T12:07:25;95654.63;;;19.29;100.00
55149;BME280;49539;48.160;11.530;2022-09-09T12:09:56;95651.19;;;19.55;100.00
55149;BME280;49539;48.160;11.530;2022-09-09T12:12:37;95648.00;;;19.62;100.00
55149;BME280;49539;48.160;11.530;2022-09-09T12:15:25;95645.66;;;19.75;100.00
55149;BME280;49539;48.160;11.530;2022-09-09T12:17:55;95646.19;;;19.79;100.00
55149;BME280;49539;48.160;11.530;2022-09-09T12:20:26;95644.50;;;19.88;100.00
55149;BME280;49539;48.160;11.530;2022-09-09T12:26:03;95647.81;;;20.23;100.00
55149;BME280;49539;48.160;11.530;2022-09-09T12:28:41;95638.81;;;19.97;100.00
55149;BME280;49539;48.160;11.530;2022-09-09T12:31:22;95636.31;;;19.99;100.00
55149;BME280;49539;48.160;11.530;2022-09-09T12:33:50;95628.94;;;20.16;100.00
55149;BME280;49539;48.160;11.530;2022-09-09T12:36:24;95630.69;;;20.19;100.00
55149;BME280;49539;48.160;11.530;2022-09-09T12:38:55;95623.78;;;20.35;100.00
55149;BME280;49539;48.160;11.530;2022-09-09T12:41:27;95627.66;;;20.49;100.00
55149;BME280;49539;48.160;11.530;2022-09-09T12:44:08;95623.53;;;20.70;100.00
55149;BME280;49539;48.160;11.530;2022-09-09T12:46:40;95622.31;;;20.77;100.00
55149;BME280;49539;48.160;11.530;2022-09-09T12:49:26;95612.03;;;20.83;100.00
55149;BME280;49539;48.160;11.530;2022-09-09T12:51:52;95621.31;;;20.74;100.00
55149;BME280;49539;48.160;11.530;2022-09-09T12:54:19;95615.94;;;20.65;100.00
55149;BME280;49539;48.160;11.530;2022-09-09T12:56:48;95609.59;;;20.22;100.00
55149;BME280;49539;48.160;11.530;2022-09-09T12:59:36;95608.88;;;20.27;100.00
55149;BME280;49539;48.160;11.530;2022-09-09T13:02:02;95604.72;;;20.11;100.00
55149;BME280;49539;48.160;11.530;2022-09-09T13:04:27;95606.75;;;20.11;100.00
55149;BME280;49539;48.160;11.530;2022-09-09T13:06:52;95605.59;;;20.23;100.00
55149;BME280;49539;48.160;11.530;2022-09-09T13:09:18;95607.69;;;20.02;100.00
55149;BME280;49539;48.160;11.530;2022-09-09T13:11:48;95601.03;;;20.20;100.00
55149;BME280;49539;48.160;11.530;2022-09-09T13:14:18;95606.50;;;20.08;100.00
55149;BME280;49539;48.160;11.530;2022-09-09T13:17:02;95590.50;;;20.24;100.00
55149;BME280;49539;48.160;11.530;2022-09-09T13:19:36;95584.44;;;20.20;100.00
55149;BME280;49539;48.160;11.530;2022-09-09T13:22:14;95592.91;;;20.42;100.00
55149;BME280;49539;48.160;11.530;2022-09-09T13:24:44;95581.06;;;20.04;100.00
55149;BME280;49539;48.160;11.530;2022-09-09T13:27:29;95582.97;;;19.93;100.00
55149;BME280;49539;48.160;11.530;2022-09-09T13:29:55;95573.13;;;20.49;100.00
55149;BME280;49539;48.160;11.530;2022-09-09T13:32:23;95573.00;;;20.75;100.00
55149;BME280;49539;48.160;11.530;2022-09-09T13:34:57;95573.97;;;20.72;100.00
55149;BME280;49539;48.160;11.530;2022-09-09T13:37:35;95562.25;;;20.94;100.00
55149;BME280;49539;48.160;11.530;2022-09-09T13:40:02;95565.56;;;20.50;100.00
55149;BME280;49539;48.160;11.530;2022-09-09T13:42:32;95565.72;;;20.78;100.00
55149;BME280;49539;48.160;11.530;2022-09-09T13:45:00;95561.16;;;20.75;100.00
55149;BME280;49539;48.160;11.530;2022-09-09T13:47:36;95565.19;;;19.99;100.00
55149;BME280;49539;48.160;11.530;2022-09-09T13:50:24;95561.94;;;19.69;100.00
55149;BME280;49539;48.160;11.530;2022-09-09T13:52:52;95560.63;;;19.65;100.00
55149;BME280;49539;48.160;11.530;2022-09-09T13:55:19;95565.16;;;19.42;100.00
55149;BME280;49539;48.160;11.530;2022-09-09T13:57:53;95564.94;;;19.45;100.00
55149;BME280;49539;48.160;11.530;2022-09-09T14:00:19;95564.16;;;19.19;100.00
55149;BME280;49539;48.160;11.530;2022-09-09T14:02:47;95559.38;;;19.40;100.00
55149;BME280;49539;48.160;11.530;2022-09-09T14:05:12;95561.75;;;19.26;100.00
55149;BME280;49539;48.160;11.530;2022-09-09T14:07:39;95554.31;;;19.12;100.00
55149;BME280;49539;48.160;11.530;2022-09-09T14:10:06;95566.59;;;19.11;100.00
55149;BME280;49539;48.160;11.530;2022-09-09T14:12:31;95561.06;;;19.11;100.00
55149;BME280;49539;48.160;11.530;2022-09-09T14:14:57;95565.69;;;19.20;100.00
55149;BME280;49539;48.160;11.530;2022-09-09T14:17:22;95569.03;;;19.29;100.00
55149;BME280;49539;48.160;11.530;2022-09-09T14:19:48;95573.75;;;19.49;100.00
55149;BME280;49539;48.160;11.530;2022-09-09T14:22:14;95574.94;;;19.17;100.00
55149;BME280;49539;48.160;11.530;2022-09-09T14:24:39;95575.13;;;19.13;100.00
55149;BME280;49539;48.160;11.530;2022-09-09T14:27:06;95578.19;;;19.15;100.00
55149;BME280;49539;48.160;11.530;2022-09-09T14:29:31;95581.91;;;19.12;100.00
55149;BME280;49539;48.160;11.530;2022-09-09T14:31:58;95581.41;;;19.34;100.00
55149;BME280;49539;48.160;11.530;2022-09-09T14:34:26;95579.28;;;19.23;100.00
55149;BME280;49539;48.160;11.530;2022-09-09T14:36:51;95579.06;;;19.27;100.00